createdAt,value
2023-04-18T00:02:23.332Z,19.99
2023-04-18T00:04:50.561Z,19.96
2023-04-18T00:07:17.927Z,19.98
2023-04-18T00:09:44.660Z,19.91
2023-04-18T00:12:11.432Z,19.80
2023-04-18T00:14:38.173Z,19.73
2023-04-18T00:17:08.846Z,20.05
2023-04-18T00:19:37.219Z,20.22
2023-04-18T00:22:03.713Z,20.13
2023-04-18T00:24:30.168Z,20.10
2023-04-18T00:26:57.150Z,20.05
2023-04-18T00:29:23.665Z,20.10
2023-04-18T00:31:52.577Z,20.04
2023-04-18T00:34:19.105Z,20.04
2023-04-18T00:36:45.629Z,19.99
2023-04-18T00:39:12.141Z,19.97
2023-04-18T00:41:38.734Z,19.98
2023-04-18T00:44:05.345Z,20.02
2023-04-18T00:46:32.072Z,19.94
2023-04-18T00:48:58.696Z,19.94
2023-04-18T00:51:25.693Z,19.89
2023-04-18T00:53:52.222Z,19.91
2023-04-18T00:56:18.906Z,19.99
2023-04-18T00:58:45.536Z,19.96
2023-04-18T01:01:13.402Z,19.92
2023-04-18T01:03:40.871Z,19.88
2023-04-18T01:06:07.793Z,19.81
2023-04-18T01:08:34.624Z,19.77
2023-04-18T01:11:01.163Z,19.73
2023-04-18T01:13:27.721Z,19.74
2023-04-18T01:15:55.778Z,19.67
2023-04-18T01:18:22.575Z,19.65
2023-04-18T01:20:51.242Z,19.62
2023-04-18T01:23:19.793Z,19.63
2023-04-18T01:25:47.003Z,19.53
2023-04-18T01:28:14.532Z,19.48
2023-04-18T01:30:41.377Z,19.37
2023-04-18T01:33:07.922Z,19.44
2023-04-18T01:35:34.467Z,19.36
2023-04-18T01:38:01.320Z,19.31
2023-04-18T01:40:28.205Z,19.26
2023-04-18T01:42:54.716Z,19.25
2023-04-18T01:45:22.335Z,19.27
2023-04-18T01:47:48.991Z,19.31
2023-04-18T01:50:15.753Z,19.27
2023-04-18T01:52:42.959Z,19.29
2023-04-18T01:55:09.922Z,19.26
2023-04-18T01:57:39.591Z,19.22
2023-04-18T02:00:07.685Z,19.25
2023-04-18T02:02:43.537Z,19.29
2023-04-18T02:05:10.176Z,19.23
2023-04-18T02:07:38.820Z,19.21
2023-04-18T02:10:05.772Z,19.29
2023-04-18T02:12:32.492Z,19.22
2023-04-18T02:14:59.586Z,19.18
2023-04-18T02:17:26.143Z,19.19
2023-04-18T02:19:54.388Z,19.17
2023-04-18T02:22:20.890Z,19.11
2023-04-18T02:24:47.376Z,19.12
2023-04-18T02:27:15.066Z,19.11
2023-04-18T02:29:41.604Z,19.09
2023-04-18T02:32:09.069Z,19.04
2023-04-18T02:34:36.438Z,18.93
2023-04-18T02:37:03.111Z,18.95
2023-04-18T02:39:29.603Z,18.98
2023-04-18T02:41:56.075Z,18.98
2023-04-18T02:44:24.459Z,19.00
2023-04-18T02:46:51.030Z,19.05
2023-04-18T02:49:17.637Z,19.00
2023-04-18T02:51:44.651Z,19.04
2023-04-18T02:54:11.456Z,19.06
2023-04-18T02:56:53.286Z,19.19
2023-04-18T02:59:24.189Z,19.08
2023-04-18T03:02:06.201Z,19.11
2023-04-18T03:04:34.369Z,19.09
2023-04-18T03:07:03.643Z,19.13
2023-04-18T03:09:35.060Z,19.21
2023-04-18T03:12:07.009Z,19.17
2023-04-18T03:14:35.438Z,19.16
2023-04-18T03:17:02.325Z,19.19
2023-04-18T03:19:35.190Z,19.17
2023-04-18T03:22:06.101Z,19.20
2023-04-18T03:24:34.130Z,19.07
2023-04-18T03:27:02.841Z,19.03
2023-04-18T03:29:29.655Z,19.01
2023-04-18T03:31:56.296Z,18.92
2023-04-18T03:34:22.847Z,18.88
2023-04-18T03:36:49.555Z,19.02
2023-04-18T03:39:16.827Z,19.10
2023-04-18T03:41:43.547Z,19.07
2023-04-18T03:44:10.354Z,19.16
2023-04-18T03:46:39.575Z,19.11
2023-04-18T03:49:06.632Z,19.04
2023-04-18T03:51:41.224Z,18.96
2023-04-18T03:54:07.844Z,19.10
2023-04-18T03:56:34.404Z,19.10
2023-04-18T03:59:00.913Z,19.09
2023-04-18T04:01:27.448Z,19.12
2023-04-18T04:03:54.403Z,19.16
2023-04-18T04:06:21.672Z,19.16
2023-04-18T04:08:48.184Z,19.16
2023-04-18T04:11:21.181Z,19.16
2023-04-18T04:13:47.977Z,19.17
2023-04-18T04:16:17.483Z,19.22
2023-04-18T04:19:04.807Z,19.24
2023-04-18T04:21:37.765Z,19.07
2023-04-18T04:24:10.018Z,19.24
2023-04-18T04:26:44.310Z,19.42
2023-04-18T04:29:25.577Z,19.34
2023-04-18T04:32:09.747Z,19.29
2023-04-18T04:34:38.349Z,19.20
2023-04-18T04:37:08.284Z,19.26
2023-04-18T04:39:47.309Z,19.31
2023-04-18T04:42:33.278Z,19.44
2023-04-18T04:45:09.466Z,19.49
2023-04-18T04:47:37.073Z,19.50
2023-04-18T04:50:04.612Z,19.49
2023-04-18T04:52:32.633Z,19.46
2023-04-18T04:54:59.221Z,19.46
2023-04-18T04:57:26.321Z,19.47
2023-04-18T04:59:53.048Z,19.50
2023-04-18T05:02:23.240Z,19.25
2023-04-18T05:04:49.982Z,19.25
2023-04-18T05:07:16.449Z,19.24
2023-04-18T05:09:43.255Z,19.47
2023-04-18T05:12:09.731Z,19.44
2023-04-18T05:14:36.287Z,19.44
2023-04-18T05:17:04.213Z,19.43
2023-04-18T05:19:30.880Z,19.51
2023-04-18T05:21:57.463Z,19.52
2023-04-18T05:24:24.057Z,19.46
2023-04-18T05:26:50.631Z,19.41
2023-04-18T05:29:17.253Z,19.56
2023-04-18T05:31:43.748Z,19.67
2023-04-18T05:34:10.249Z,19.84
2023-04-18T05:36:36.993Z,19.94
2023-04-18T05:39:04.134Z,20.06
2023-04-18T05:41:30.623Z,20.22
2023-04-18T05:44:04.676Z,20.16
2023-04-18T05:46:32.903Z,19.99
2023-04-18T05:48:59.534Z,20.27
2023-04-18T05:51:26.739Z,20.46
2023-04-18T05:53:53.254Z,20.74
2023-04-18T05:56:19.804Z,20.78
2023-04-18T05:58:47.555Z,20.57
2023-04-18T06:01:18.624Z,20.72
2023-04-18T06:03:45.355Z,22.09
2023-04-18T06:06:12.061Z,21.66
2023-04-18T06:08:39.188Z,22.16
2023-04-18T06:11:05.949Z,22.43
2023-04-18T06:13:32.582Z,22.40
2023-04-18T06:16:00.890Z,22.34
2023-04-18T06:18:27.425Z,21.86
2023-04-18T06:20:54.629Z,21.74
2023-04-18T06:23:21.124Z,21.40
2023-04-18T06:25:47.609Z,21.38
2023-04-18T06:28:14.133Z,21.30
2023-04-18T06:30:40.784Z,21.44
2023-04-18T06:33:10.452Z,21.53
2023-04-18T06:35:37.305Z,21.63
2023-04-18T06:38:10.977Z,21.57
2023-04-18T06:40:37.515Z,21.67
2023-04-18T06:43:04.150Z,21.53
2023-04-18T06:45:31.482Z,21.63
2023-04-18T06:47:59.788Z,21.52
2023-04-18T06:50:26.938Z,21.67
2023-04-18T06:52:53.470Z,21.73
2023-04-18T06:55:20.076Z,21.85
2023-04-18T06:57:46.727Z,21.84
2023-04-18T07:00:14.387Z,21.91
2023-04-18T07:02:41.773Z,21.89
2023-04-18T07:05:09.284Z,21.84
2023-04-18T07:07:36.547Z,21.90
2023-04-18T07:10:03.110Z,22.06
2023-04-18T07:12:29.660Z,22.31
2023-04-18T07:14:56.269Z,22.48
2023-04-18T07:17:22.989Z,23.15
2023-04-18T07:19:49.628Z,23.42
2023-04-18T07:22:16.332Z,24.09
2023-04-18T07:24:44.169Z,24.30
2023-04-18T07:27:10.815Z,24.43
2023-04-18T07:29:37.538Z,24.38
2023-04-18T07:32:05.640Z,24.14
2023-04-18T07:34:35.745Z,24.37
2023-04-18T07:37:02.439Z,24.28
2023-04-18T07:39:28.960Z,24.49
2023-04-18T07:41:55.507Z,25.74
2023-04-18T07:44:21.981Z,27.51
2023-04-18T07:46:48.714Z,28.72
2023-04-18T07:49:15.836Z,28.88
2023-04-18T07:51:42.640Z,29.27
2023-04-18T07:54:11.059Z,29.71
2023-04-18T07:56:37.570Z,30.16
2023-04-18T07:59:04.097Z,30.84
2023-04-18T08:01:31.161Z,30.68
2023-04-18T08:04:01.629Z,30.94
2023-04-18T08:06:29.099Z,31.60
2023-04-18T08:08:57.459Z,32.23
2023-04-18T08:11:24.147Z,32.33
2023-04-18T08:13:50.791Z,32.22
2023-04-18T08:16:17.716Z,30.43
2023-04-18T08:18:44.363Z,29.43
2023-04-18T08:21:10.996Z,28.05
2023-04-18T08:23:37.535Z,26.99
2023-04-18T08:26:04.085Z,26.14
2023-04-18T08:28:30.657Z,25.41
2023-04-18T08:30:57.327Z,24.94
2023-04-18T08:33:24.463Z,24.51
2023-04-18T08:35:51.492Z,24.23
2023-04-18T08:38:18.866Z,23.96
2023-04-18T08:40:45.613Z,23.69
2023-04-18T08:43:14.763Z,23.45
2023-04-18T08:45:44.977Z,23.32
2023-04-18T08:48:15.308Z,23.17
2023-04-18T08:50:42.574Z,23.05
2023-04-18T08:53:09.439Z,22.78
2023-04-18T08:55:36.028Z,22.68
2023-04-18T08:58:04.856Z,22.54
2023-04-18T09:00:31.379Z,22.36
2023-04-18T09:02:58.252Z,22.33
2023-04-18T09:05:26.994Z,22.32
2023-04-18T09:07:56.230Z,22.33
2023-04-18T09:10:28.857Z,22.47
2023-04-18T09:12:56.890Z,23.09
2023-04-18T09:15:27.191Z,23.87
2023-04-18T09:17:56.044Z,24.07
2023-04-18T09:20:43.601Z,24.50
2023-04-18T09:23:14.406Z,24.15
2023-04-18T09:25:46.754Z,24.43
2023-04-18T09:28:27.086Z,24.50
2023-04-18T09:30:54.681Z,24.29
2023-04-18T09:33:32.673Z,24.52
2023-04-18T09:36:18.567Z,24.89
2023-04-18T09:38:45.461Z,24.53
2023-04-18T09:41:13.070Z,24.51
2023-04-18T09:43:40.589Z,24.54
2023-04-18T09:46:08.227Z,24.58
2023-04-18T09:48:35.084Z,24.73
2023-04-18T09:51:06.724Z,24.83
2023-04-18T09:53:35.356Z,25.21
2023-04-18T09:56:02.514Z,25.26
2023-04-18T09:58:30.753Z,25.54
2023-04-18T10:00:57.881Z,25.80
2023-04-18T10:03:28.880Z,26.03
2023-04-18T10:05:57.675Z,27.22
2023-04-18T10:08:24.426Z,26.27
2023-04-18T10:10:50.943Z,26.25
2023-04-18T10:13:18.607Z,26.33
2023-04-18T10:15:45.643Z,26.42
2023-04-18T10:18:18.464Z,26.56
2023-04-18T10:20:46.893Z,26.52
2023-04-18T10:23:31.866Z,26.98
2023-04-18T10:25:59.126Z,26.57
2023-04-18T10:28:27.466Z,26.62
2023-04-18T10:30:56.372Z,26.70
2023-04-18T10:33:32.259Z,26.81
2023-04-18T10:36:03.754Z,27.00
2023-04-18T10:38:31.554Z,26.95
2023-04-18T10:41:26.434Z,27.26
2023-04-18T10:44:08.708Z,27.25
2023-04-18T10:46:51.116Z,27.24
2023-04-18T10:49:30.304Z,27.11
2023-04-18T10:52:00.408Z,27.12
2023-04-18T10:54:43.568Z,27.61
2023-04-18T10:57:11.232Z,27.23
2023-04-18T10:59:38.813Z,27.34
2023-04-18T11:02:29.575Z,27.43
2023-04-18T11:05:01.524Z,27.60
2023-04-18T11:07:38.718Z,27.59
2023-04-18T11:10:06.357Z,27.42
2023-04-18T11:12:35.820Z,27.40
2023-04-18T11:15:04.492Z,27.32
2023-04-18T11:17:40.063Z,27.35
2023-04-18T11:20:14.782Z,27.39
2023-04-18T11:22:51.264Z,27.40
2023-04-18T11:25:23.683Z,27.26
2023-04-18T11:27:51.660Z,27.19
2023-04-18T11:30:18.291Z,27.19
2023-04-18T11:32:44.937Z,27.14
2023-04-18T11:35:13.191Z,27.15
2023-04-18T11:37:40.696Z,27.05
2023-04-18T11:40:10.477Z,27.15
2023-04-18T11:42:39.025Z,27.20
2023-04-18T11:45:15.831Z,27.55
2023-04-18T11:47:43.413Z,27.25
2023-04-18T11:50:11.643Z,27.07
2023-04-18T11:52:41.300Z,27.27
2023-04-18T11:55:13.414Z,27.26
2023-04-18T11:57:40.870Z,27.20
2023-04-18T12:00:09.031Z,27.31
2023-04-18T12:02:43.711Z,27.64
2023-04-18T12:05:12.049Z,27.42
2023-04-18T12:07:43.043Z,27.65
2023-04-18T12:10:24.072Z,27.71
2023-04-18T12:12:52.097Z,27.55
2023-04-18T12:15:19.483Z,27.38
2023-04-18T12:17:51.855Z,27.55
2023-04-18T12:20:18.477Z,27.60
2023-04-18T12:22:46.009Z,27.61
2023-04-18T12:25:22.814Z,27.67
2023-04-18T12:27:59.599Z,27.61
2023-04-18T12:30:31.775Z,27.60
2023-04-18T12:33:02.885Z,27.61
2023-04-18T12:35:30.782Z,27.40
2023-04-18T12:37:59.243Z,27.37
2023-04-18T12:40:26.937Z,27.38
2023-04-18T12:42:54.295Z,27.23
2023-04-18T12:45:22.111Z,27.35
2023-04-18T12:47:50.849Z,27.33
2023-04-18T12:50:19.887Z,27.18
2023-04-18T12:52:46.798Z,27.27
2023-04-18T12:55:13.657Z,27.24
2023-04-18T12:57:41.514Z,27.23
2023-04-18T13:00:11.236Z,27.07
2023-04-18T13:02:39.102Z,27.06
2023-04-18T13:05:10.754Z,27.07
2023-04-18T13:07:38.049Z,26.94
2023-04-18T13:10:05.002Z,26.89
2023-04-18T13:12:31.525Z,26.88
2023-04-18T13:14:58.113Z,26.95
2023-04-18T13:17:24.708Z,26.98
2023-04-18T13:19:51.902Z,27.07
2023-04-18T13:22:20.328Z,26.89
2023-04-18T13:24:47.462Z,26.73
2023-04-18T13:27:14.795Z,26.87
2023-04-18T13:29:42.482Z,26.97
2023-04-18T13:32:09.687Z,26.73
2023-04-18T13:34:42.726Z,27.02
2023-04-18T13:37:09.548Z,26.93
2023-04-18T13:39:36.177Z,26.97
2023-04-18T13:42:03.288Z,26.92
2023-04-18T13:44:33.674Z,27.05
2023-04-18T13:47:01.164Z,26.90
2023-04-18T13:49:27.919Z,26.94
2023-04-18T13:51:57.190Z,26.99
2023-04-18T13:54:26.560Z,27.15
2023-04-18T13:56:54.096Z,27.11
2023-04-18T13:59:20.791Z,27.09
2023-04-18T14:01:47.431Z,27.13
2023-04-18T14:04:14.176Z,27.19
2023-04-18T14:06:41.046Z,27.21
2023-04-18T14:09:07.944Z,27.19
2023-04-18T14:11:35.213Z,27.17
2023-04-18T14:14:02.319Z,27.15
2023-04-18T14:16:32.332Z,26.99
2023-04-18T14:18:59.873Z,26.99
2023-04-18T14:21:26.858Z,26.91
2023-04-18T14:23:53.840Z,27.04
2023-04-18T14:26:20.756Z,27.07
2023-04-18T14:28:47.634Z,27.10
2023-04-18T14:31:15.235Z,27.10
2023-04-18T14:33:42.405Z,26.96
2023-04-18T14:36:09.760Z,26.96
2023-04-18T14:38:36.393Z,27.09
2023-04-18T14:41:05.777Z,27.24
2023-04-18T14:43:32.400Z,27.08
2023-04-18T14:45:59.679Z,27.08
2023-04-18T14:48:27.190Z,27.20
2023-04-18T14:51:02.622Z,27.26
2023-04-18T14:53:29.681Z,27.06
2023-04-18T14:55:56.373Z,27.02
2023-04-18T14:58:22.864Z,26.98
2023-04-18T15:00:49.456Z,26.94
2023-04-18T15:03:16.705Z,27.03
2023-04-18T15:05:46.704Z,27.00
2023-04-18T15:08:14.497Z,27.10
2023-04-18T15:10:42.483Z,27.04
2023-04-18T15:13:09.899Z,26.95
2023-04-18T15:15:37.880Z,27.03
2023-04-18T15:18:05.640Z,27.03
2023-04-18T15:20:34.285Z,26.95
2023-04-18T15:23:03.389Z,26.99
2023-04-18T15:25:30.880Z,26.80
2023-04-18T15:27:58.299Z,26.78
2023-04-18T15:30:29.324Z,26.80
2023-04-18T15:32:57.234Z,26.86
2023-04-18T15:35:24.133Z,26.76
2023-04-18T15:37:51.652Z,26.72
2023-04-18T15:40:18.717Z,26.85
2023-04-18T15:42:45.692Z,26.72
2023-04-18T15:45:12.377Z,26.70
2023-04-18T15:47:39.132Z,26.62
2023-04-18T15:50:07.158Z,26.63
2023-04-18T15:52:34.035Z,26.69
2023-04-18T15:55:00.798Z,26.76
2023-04-18T15:57:29.698Z,26.73
2023-04-18T15:59:56.721Z,26.60
2023-04-18T16:02:26.390Z,26.66
2023-04-18T16:04:53.108Z,26.73
2023-04-18T16:07:19.839Z,26.65
2023-04-18T16:09:46.335Z,26.66
2023-04-18T16:12:12.921Z,26.64
2023-04-18T16:14:39.448Z,26.60
2023-04-18T16:17:06.004Z,26.57
2023-04-18T16:19:34.414Z,26.53
2023-04-18T16:22:02.279Z,26.61
2023-04-18T16:24:30.256Z,26.55
2023-04-18T16:26:56.940Z,26.61
2023-04-18T16:29:23.862Z,26.56
2023-04-18T16:31:51.673Z,26.63
2023-04-18T16:34:18.447Z,26.55
2023-04-18T16:36:44.985Z,26.40
2023-04-18T16:39:11.533Z,26.34
2023-04-18T16:41:38.080Z,26.31
2023-04-18T16:44:04.859Z,26.18
2023-04-18T16:46:32.322Z,26.20
2023-04-18T16:48:59.394Z,26.22
2023-04-18T16:51:26.471Z,26.27
2023-04-18T16:53:53.078Z,26.19
2023-04-18T16:56:19.665Z,26.25
2023-04-18T16:58:46.179Z,26.06
2023-04-18T17:01:12.797Z,26.16
2023-04-18T17:03:39.457Z,25.96
2023-04-18T17:06:06.279Z,25.82
2023-04-18T17:08:33.669Z,25.93
2023-04-18T17:11:02.019Z,25.92
2023-04-18T17:13:31.387Z,25.93
2023-04-18T17:15:58.009Z,25.87
2023-04-18T17:18:24.675Z,25.77
2023-04-18T17:20:51.388Z,25.74
2023-04-18T17:23:17.968Z,25.79
2023-04-18T17:25:45.021Z,25.81
2023-04-18T17:28:11.980Z,25.72
2023-04-18T17:30:42.437Z,25.83
2023-04-18T17:33:12.116Z,25.93
2023-04-18T17:35:44.724Z,25.74
2023-04-18T17:38:15.111Z,25.77
2023-04-18T17:40:42.096Z,25.61
2023-04-18T17:43:08.788Z,25.40
2023-04-18T17:45:35.781Z,25.40
2023-04-18T17:48:03.182Z,25.33
2023-04-18T17:50:32.619Z,25.35
2023-04-18T17:52:59.306Z,25.25
2023-04-18T17:55:27.038Z,25.35
2023-04-18T17:57:53.850Z,25.26
2023-04-18T18:00:20.482Z,25.16
2023-04-18T18:02:47.338Z,25.19
2023-04-18T18:05:14.233Z,25.22
2023-04-18T18:07:43.157Z,25.17
2023-04-18T18:10:10.809Z,25.20
2023-04-18T18:12:38.131Z,25.23
2023-04-18T18:15:05.257Z,25.08
2023-04-18T18:17:31.833Z,25.08
2023-04-18T18:19:58.499Z,25.00
2023-04-18T18:22:26.208Z,25.02
2023-04-18T18:24:53.020Z,24.85
2023-04-18T18:27:23.179Z,24.62
2023-04-18T18:29:50.611Z,24.62
2023-04-18T18:32:17.489Z,24.41
2023-04-18T18:34:44.236Z,24.49
2023-04-18T18:37:17.316Z,24.66
2023-04-18T18:39:44.100Z,24.45
2023-04-18T18:42:10.821Z,24.50
2023-04-18T18:44:37.537Z,24.57
2023-04-18T18:47:04.107Z,24.58
2023-04-18T18:49:30.776Z,24.54
2023-04-18T18:51:57.820Z,24.41
2023-04-18T18:54:25.857Z,24.41
2023-04-18T18:56:52.401Z,24.43
2023-04-18T18:59:19.201Z,24.54
2023-04-18T19:01:45.860Z,24.52
2023-04-18T19:04:12.569Z,24.42
2023-04-18T19:06:39.327Z,24.29
2023-04-18T19:09:06.067Z,24.17
2023-04-18T19:11:32.657Z,24.19
2023-04-18T19:13:59.166Z,24.16
2023-04-18T19:16:25.804Z,23.88
2023-04-18T19:18:52.394Z,23.76
2023-04-18T19:21:20.208Z,23.52
2023-04-18T19:23:46.824Z,23.35
2023-04-18T19:26:16.388Z,23.37
2023-04-18T19:28:45.008Z,23.25
2023-04-18T19:31:16.711Z,23.13
2023-04-18T19:33:45.587Z,23.07
2023-04-18T19:39:13.701Z,23.02
2023-04-18T19:41:49.642Z,23.13
2023-04-18T19:44:18.530Z,23.02
2023-04-18T19:46:45.043Z,22.97
2023-04-18T19:49:11.647Z,22.97
2023-04-18T19:51:39.167Z,22.81
2023-04-18T19:54:06.364Z,22.77
2023-04-18T19:56:39.889Z,22.92
2023-04-18T19:59:12.792Z,22.78
2023-04-18T20:01:41.366Z,22.81
2023-04-18T20:04:10.494Z,22.75
2023-04-18T20:06:37.572Z,22.68
2023-04-18T20:09:05.627Z,22.71
2023-04-18T20:11:32.370Z,22.61
2023-04-18T20:13:59.089Z,22.55
2023-04-18T20:16:26.209Z,22.46
2023-04-18T20:18:54.870Z,22.31
2023-04-18T20:21:21.690Z,22.29
2023-04-18T20:23:48.257Z,22.23
2023-04-18T20:26:14.988Z,22.12
2023-04-18T20:28:41.581Z,22.18
2023-04-18T20:31:08.224Z,22.13
2023-04-18T20:33:36.146Z,22.11
2023-04-18T20:36:03.567Z,22.10
2023-04-18T20:38:30.145Z,22.01
2023-04-18T20:40:58.810Z,21.95
2023-04-18T20:43:25.750Z,21.81
2023-04-18T20:45:53.608Z,21.82
2023-04-18T20:48:20.955Z,21.90
2023-04-18T20:50:51.404Z,21.79
2023-04-18T20:53:21.042Z,21.88
2023-04-18T20:55:48.508Z,21.71
2023-04-18T20:58:15.174Z,21.71
2023-04-18T21:00:41.805Z,21.67
2023-04-18T21:03:08.517Z,21.58
2023-04-18T21:05:35.365Z,21.57
2023-04-18T21:08:01.961Z,21.53
2023-04-18T21:10:28.573Z,21.48
2023-04-18T21:12:55.168Z,21.40
2023-04-18T21:15:21.743Z,21.53
2023-04-18T21:17:50.358Z,21.50
2023-04-18T21:20:17.390Z,21.32
2023-04-18T21:22:44.132Z,21.27
2023-04-18T21:25:10.758Z,21.32
2023-04-18T21:27:37.661Z,21.28
2023-04-18T21:30:05.179Z,21.38
2023-04-18T21:32:31.806Z,21.36
2023-04-18T21:34:58.598Z,21.42
2023-04-18T21:37:25.489Z,21.37
2023-04-18T21:39:52.207Z,21.31
2023-04-18T21:42:18.877Z,21.31
2023-04-18T21:44:45.551Z,21.27
2023-04-18T21:47:12.277Z,21.03
2023-04-18T21:49:39.182Z,21.15
2023-04-18T21:52:06.222Z,20.96
2023-04-18T21:54:33.308Z,21.09
2023-04-18T21:56:59.968Z,21.03
2023-04-18T21:59:26.784Z,20.99
2023-04-18T22:01:53.456Z,20.87
2023-04-18T22:04:22.042Z,20.85
2023-04-18T22:06:48.910Z,20.75
2023-04-18T22:09:19.076Z,20.65
2023-04-18T22:11:45.775Z,20.72
2023-04-18T22:14:14.675Z,20.56
2023-04-18T22:16:42.421Z,20.31
2023-04-18T22:19:09.173Z,20.38
2023-04-18T22:21:35.747Z,20.31
2023-04-18T22:24:02.433Z,20.16
2023-04-18T22:26:28.979Z,20.12
2023-04-18T22:28:55.514Z,20.14
2023-04-18T22:31:22.061Z,20.08
2023-04-18T22:33:48.778Z,20.25
2023-04-18T22:36:15.490Z,20.23
2023-04-18T22:38:42.170Z,20.24
2023-04-18T22:41:08.752Z,20.32
2023-04-18T22:43:35.372Z,20.10
2023-04-18T22:46:02.791Z,20.14
2023-04-18T22:48:29.976Z,20.10
2023-04-18T22:50:56.624Z,20.14
2023-04-18T22:53:23.276Z,20.15
2023-04-18T22:55:50.997Z,20.11
2023-04-18T22:58:17.777Z,20.14
2023-04-18T23:00:44.373Z,20.03
2023-04-18T23:03:11.181Z,20.09
2023-04-18T23:05:37.860Z,19.91
2023-04-18T23:08:07.041Z,19.87
2023-04-18T23:10:34.103Z,20.04
2023-04-18T23:13:00.950Z,20.02
2023-04-18T23:15:27.497Z,19.80
2023-04-18T23:17:54.481Z,19.97
2023-04-18T23:20:21.717Z,19.83
2023-04-18T23:22:51.598Z,19.77
2023-04-18T23:25:20.357Z,19.96
2023-04-18T23:27:47.991Z,19.97
2023-04-18T23:30:14.787Z,19.99
2023-04-18T23:32:41.637Z,20.04
2023-04-18T23:35:08.746Z,19.96
2023-04-18T23:37:35.418Z,19.87
2023-04-18T23:40:07.026Z,19.98
2023-04-18T23:42:37.032Z,19.83
2023-04-18T23:45:05.756Z,19.94
2023-04-18T23:47:32.653Z,19.88
2023-04-18T23:49:59.471Z,20.00
2023-04-18T23:52:26.067Z,19.88
2023-04-18T23:54:53.900Z,19.99
2023-04-18T23:57:20.792Z,20.03
2023-04-18T23:59:47.508Z,20.13
